Hardy, Mississippi
Current Conditions -  °F | °C
As of 6:53 PM on Wednesday 22 Oct 2014 (Local Time) from KGWO Reporting Station
Clear Clear  
Wind Chill: 55°   Ceiling: Unl
Heat Index: 55°   Visibility: 10mi
Dew Point: 48°   Wind: 5mph
Humidity: 77%   Direction: 30°NNE
Pressure: 30.14"   Gusts: NA
Location:  33.8096°N, 89.8042°W
Report Text: KGWO 222353Z AUTO 03004KT 10SM CLR 13/09 A3014 RMK AO2 SLP207 T01280089 10222 20128 53004 TSNO
Loading
Personal Weather Stations






























Interactive Weather Map
Tropical Storm Tracking
New forecast layout! Learn more

10-Day Weather Forecast

Advertisements
Track Severe Weather on mobile